Toyo Maru — JI3710 — position and weather

sailwx.info

Track history (hours):
 
Tides and Currents Weather Stations Pressure Air Temp Water Temp Dewpoint Dewpoint Depression Visibility Wind Speed Wind Dir Waves Ship Positions

Toyo Maru

Last reported at 2016-Feb-07 11:26 UTC. Time now 2016-Feb-08 12:30 UTC.
Position N 35°07' E 139°42'.

Length 125 m; draft 6 m.

Type: Cargo ship. MMSI: 431401953.

Date/timePositionNaut miles runAvg speedWind from/ knotsBaromVisibWave heightAir tempDewpointWater temp
2016-Feb-07 11:26N 35°07' E 139°42'1213.5
2016-Feb-07 10:33N 35°18' E 139°44'1514.8
2016-Feb-07 09:33N 35°31' E 139°53'1211.4
2016-Feb-07 08:32N 35°36' E 140°06'0 0.0
2016-Feb-07 07:32N 35°36' E 140°06'0 0.0
2016-Feb-07 06:33N 35°36' E 140°06'1 1.1
2016-Feb-07 05:24N 35°37' E 140°05'0 0.0
2016-Feb-07 04:30N 35°37' E 140°05'0 0.0
2016-Feb-07 02:30N 35°37' E 140°05'0 0.0
2016-Feb-07 01:30N 35°37' E 140°05'0 0.0
2016-Feb-07 00:30N 35°37' E 140°05'0 0.0
2016-Feb-06 23:30N 35°37' E 140°05'1 0.7
2016-Feb-06 22:33N 35°36' E 140°05'1515.2
2016-Feb-06 21:33N 35°27' E 139°50'1211.6
2016-Feb-06 20:33N 35°16' E 139°46'1413.5
2016-Feb-06 19:33N 35°03' E 139°41'24014.8
2016-Feb-06 03:20N 34°06' E 134°57'1717.9
2016-Feb-06 02:23N 34°22' E 135°02'1518.1
2016-Feb-06 01:33N 34°32' E 135°16'8 8.5
2016-Feb-06 00:33N 34°35' E 135°26'2 2.3
2016-Feb-05 23:33N 34°36' E 135°24'4 3.8
2016-Feb-05 22:30N 34°36' E 135°19'0 0.0
2016-Feb-05 21:30N 34°36' E 135°19'0 0.0
2016-Feb-05 20:30N 34°36' E 135°19'0 0.0
2016-Feb-05 19:24N 34°36' E 135°19'3 3.1
2016-Feb-05 18:33N 34°35' E 135°16'  
2016-Feb-03 11:33N 35°09' E 139°45'1211.8
2016-Feb-03 10:33N 35°21' E 139°42'1616.1
2016-Feb-03 09:33N 35°32' E 139°56'9 8.1
2016-Feb-03 08:29N 35°36' E 140°06'0 0.0
2016-Feb-03 07:32N 35°36' E 140°06'0 0.0
2016-Feb-03 06:32N 35°36' E 140°06'1 0.4
2016-Feb-03 03:24N 35°37' E 140°05'0 0.0
2016-Feb-03 02:30N 35°37' E 140°05'0 0.0
2016-Feb-03 01:24N 35°37' E 140°05'0 0.0
2016-Feb-03 00:30N 35°37' E 140°05'0 0.0
2016-Feb-02 23:18N 35°37' E 140°05'0 0.0
2016-Feb-02 22:30N 35°37' E 140°05'0 0.0
2016-Feb-02 21:21N 35°37' E 140°05'0 0.0
2016-Feb-02 20:30N 35°37' E 140°05'0 0.0
2016-Feb-02 19:30N 35°37' E 140°05'0 0.0
2016-Feb-02 18:30N 35°37' E 140°05'0 0.0
2016-Feb-02 17:30N 35°37' E 140°05'0 0.0
2016-Feb-02 16:24N 35°37' E 140°05'0 0.0
2016-Feb-02 15:30N 35°37' E 140°05'0 0.2
2016-Feb-02 14:33N 35°36' E 140°05'1313.3
2016-Feb-02 13:34N 35°29' E 139°52'1312.5
2016-Feb-02 12:33N 35°17' E 139°45'25510.0
2016-Feb-01 11:07N 34°04' E 134°48'  
2016-Jan-29 10:20N 35°02' E 139°37'1317.1
2016-Jan-29 09:34N 35°13' E 139°46'1312.7
2016-Jan-29 08:33N 35°26' E 139°46'1717.2
2016-Jan-29 07:33N 35°35' E 140°04'2 1.0
2016-Jan-29 05:28N 35°36' E 140°06'0 0.0
2016-Jan-29 04:33N 35°36' E 140°06'1 1.1
2016-Jan-29 03:25N 35°37' E 140°05'0 0.0
2016-Jan-29 01:31N 35°37' E 140°05'0 0.0
2016-Jan-29 00:31N 35°37' E 140°05'0 0.0
2016-Jan-28 23:31N 35°37' E 140°05'0 0.0
2016-Jan-28 22:31N 35°37' E 140°05'0 0.0
2016-Jan-28 21:19N 35°37' E 140°05'0 0.0
2016-Jan-28 20:07N 35°37' E 140°05'0 0.0
2016-Jan-28 19:31N 35°37' E 140°05'0 0.0
2016-Jan-28 18:31N 35°37' E 140°05'0 0.0
2016-Jan-28 17:31N 35°37' E 140°05'0 0.0
2016-Jan-28 16:25N 35°37' E 140°05'0 0.0
2016-Jan-28 15:31N 35°37' E 140°05'0 0.0
2016-Jan-28 14:31N 35°37' E 140°05'0 0.0
2016-Jan-28 13:25N 35°37' E 140°05'0 0.0
2016-Jan-28 12:31N 35°37' E 140°05'0 0.0
2016-Jan-28 11:31N 35°37' E 140°05'  
Track history (hours):
 
Tides and Currents Weather Stations Pressure Air Temp Water Temp Dewpoint Dewpoint Depression Visibility Wind Speed Wind Dir Waves Ship Positions

Toyo Maru

Last reported at 2016-Feb-07 11:26 UTC. Time now 2016-Feb-08 12:30 UTC.
Position N 35°07' E 139°42'.

Length 125 m; draft 6 m.

Type: Cargo ship. MMSI: 431401953.

Date/timePositionNaut miles runAvg speedWind from/ knotsBaromVisibWave heightAir tempDewpointWater temp
2016-Feb-07 11:26N 35°07' E 139°42'1213.5
2016-Feb-07 10:33N 35°18' E 139°44'1514.8
2016-Feb-07 09:33N 35°31' E 139°53'1211.4
2016-Feb-07 08:32N 35°36' E 140°06'0 0.0
2016-Feb-07 07:32N 35°36' E 140°06'0 0.0
2016-Feb-07 06:33N 35°36' E 140°06'1 1.1
2016-Feb-07 05:24N 35°37' E 140°05'0 0.0
2016-Feb-07 04:30N 35°37' E 140°05'0 0.0
2016-Feb-07 02:30N 35°37' E 140°05'0 0.0
2016-Feb-07 01:30N 35°37' E 140°05'0 0.0
2016-Feb-07 00:30N 35°37' E 140°05'0 0.0
2016-Feb-06 23:30N 35°37' E 140°05'1 0.7
2016-Feb-06 22:33N 35°36' E 140°05'1515.2
2016-Feb-06 21:33N 35°27' E 139°50'1211.6
2016-Feb-06 20:33N 35°16' E 139°46'1413.5
2016-Feb-06 19:33N 35°03' E 139°41'24014.8
2016-Feb-06 03:20N 34°06' E 134°57'1717.9
2016-Feb-06 02:23N 34°22' E 135°02'1518.1
2016-Feb-06 01:33N 34°32' E 135°16'8 8.5
2016-Feb-06 00:33N 34°35' E 135°26'2 2.3
2016-Feb-05 23:33N 34°36' E 135°24'4 3.8
2016-Feb-05 22:30N 34°36' E 135°19'0 0.0
2016-Feb-05 21:30N 34°36' E 135°19'0 0.0
2016-Feb-05 20:30N 34°36' E 135°19'0 0.0
2016-Feb-05 19:24N 34°36' E 135°19'3 3.1
2016-Feb-05 18:33N 34°35' E 135°16'  
2016-Feb-03 11:33N 35°09' E 139°45'1211.8
2016-Feb-03 10:33N 35°21' E 139°42'1616.1
2016-Feb-03 09:33N 35°32' E 139°56'9 8.1
2016-Feb-03 08:29N 35°36' E 140°06'0 0.0
2016-Feb-03 07:32N 35°36' E 140°06'0 0.0
2016-Feb-03 06:32N 35°36' E 140°06'1 0.4
2016-Feb-03 03:24N 35°37' E 140°05'0 0.0
2016-Feb-03 02:30N 35°37' E 140°05'0 0.0
2016-Feb-03 01:24N 35°37' E 140°05'0 0.0
2016-Feb-03 00:30N 35°37' E 140°05'0 0.0
2016-Feb-02 23:18N 35°37' E 140°05'0 0.0
2016-Feb-02 22:30N 35°37' E 140°05'0 0.0
2016-Feb-02 21:21N 35°37' E 140°05'0 0.0
2016-Feb-02 20:30N 35°37' E 140°05'0 0.0
2016-Feb-02 19:30N 35°37' E 140°05'0 0.0
2016-Feb-02 18:30N 35°37' E 140°05'0 0.0
2016-Feb-02 17:30N 35°37' E 140°05'0 0.0
2016-Feb-02 16:24N 35°37' E 140°05'0 0.0
2016-Feb-02 15:30N 35°37' E 140°05'0 0.2
2016-Feb-02 14:33N 35°36' E 140°05'1313.3
2016-Feb-02 13:34N 35°29' E 139°52'1312.5
2016-Feb-02 12:33N 35°17' E 139°45'25510.0
2016-Feb-01 11:07N 34°04' E 134°48'  
2016-Jan-29 10:20N 35°02' E 139°37'1317.1
2016-Jan-29 09:34N 35°13' E 139°46'1312.7
2016-Jan-29 08:33N 35°26' E 139°46'1717.2
2016-Jan-29 07:33N 35°35' E 140°04'2 1.0
2016-Jan-29 05:28N 35°36' E 140°06'0 0.0
2016-Jan-29 04:33N 35°36' E 140°06'1 1.1
2016-Jan-29 03:25N 35°37' E 140°05'0 0.0
2016-Jan-29 01:31N 35°37' E 140°05'0 0.0
2016-Jan-29 00:31N 35°37' E 140°05'0 0.0
2016-Jan-28 23:31N 35°37' E 140°05'0 0.0
2016-Jan-28 22:31N 35°37' E 140°05'0 0.0
2016-Jan-28 21:19N 35°37' E 140°05'0 0.0
2016-Jan-28 20:07N 35°37' E 140°05'0 0.0
2016-Jan-28 19:31N 35°37' E 140°05'0 0.0
2016-Jan-28 18:31N 35°37' E 140°05'0 0.0
2016-Jan-28 17:31N 35°37' E 140°05'0 0.0
2016-Jan-28 16:25N 35°37' E 140°05'0 0.0
2016-Jan-28 15:31N 35°37' E 140°05'0 0.0
2016-Jan-28 14:31N 35°37' E 140°05'0 0.0
2016-Jan-28 13:25N 35°37' E 140°05'0 0.0
2016-Jan-28 12:31N 35°37' E 140°05'0 0.0
2016-Jan-28 11:31N 35°37' E 140°05'  

Dump ship's entire track history